createdAt,value
2022-09-20T00:00:45.664Z,9.27
2022-09-20T00:03:54.005Z,9.10
2022-09-20T00:07:03.300Z,9.23
2022-09-20T00:10:10.930Z,9.83
2022-09-20T00:13:18.494Z,10.33
2022-09-20T00:16:27.773Z,9.27
2022-09-20T00:19:33.629Z,8.93
2022-09-20T00:22:42.956Z,8.70
2022-09-20T00:25:49.252Z,8.77
2022-09-20T00:28:56.656Z,8.00
2022-09-20T00:32:03.514Z,8.17
2022-09-20T00:35:11.658Z,8.00
2022-09-20T00:38:20.511Z,8.47
2022-09-20T00:41:27.448Z,8.50
2022-09-20T00:45:01.198Z,8.00
2022-09-20T00:48:15.100Z,10.43
2022-09-20T00:51:25.821Z,8.67
2022-09-20T00:54:35.195Z,10.57
2022-09-20T00:57:42.233Z,7.90
2022-09-20T01:00:50.032Z,8.93
2022-09-20T01:03:56.991Z,10.70
2022-09-20T01:07:06.296Z,10.20
2022-09-20T01:10:14.809Z,8.97
2022-09-20T01:13:21.435Z,8.67
2022-09-20T01:16:29.730Z,9.80
2022-09-20T01:19:43.554Z,9.67
2022-09-20T01:23:16.687Z,9.17
2022-09-20T01:26:46.397Z,9.83
2022-09-20T01:30:10.344Z,9.53
2022-09-20T01:33:24.857Z,8.70
2022-09-20T01:36:42.999Z,8.70
2022-09-20T01:40:00.998Z,8.83
2022-09-20T01:43:18.173Z,8.67
2022-09-20T01:46:36.409Z,9.10
2022-09-20T01:49:50.344Z,10.70
2022-09-20T01:53:25.282Z,10.67
2022-09-20T01:56:57.893Z,9.63
2022-09-20T02:00:12.315Z,9.10
2022-09-20T02:03:45.524Z,10.17
2022-09-20T02:07:24.616Z,10.97
2022-09-20T02:10:52.705Z,11.90
2022-09-20T02:14:08.997Z,9.40
2022-09-20T02:17:16.936Z,10.53
2022-09-20T02:20:38.724Z,9.97
2022-09-20T02:23:52.907Z,9.73
2022-09-20T02:27:11.031Z,10.73
2022-09-20T02:30:32.057Z,10.83
2022-09-20T02:34:03.766Z,9.47
2022-09-20T02:37:30.955Z,10.03
2022-09-20T02:41:06.206Z,9.97
2022-09-20T02:44:21.804Z,10.80
2022-09-20T02:47:36.136Z,11.53
2022-09-20T02:50:52.874Z,11.10
2022-09-20T02:54:26.535Z,11.37
2022-09-20T02:57:46.265Z,11.20
2022-09-20T03:01:03.189Z,9.87
2022-09-20T03:04:24.593Z,9.93
2022-09-20T03:07:40.390Z,9.73
2022-09-20T03:10:57.896Z,11.17
2022-09-20T03:14:23.276Z,9.93
2022-09-20T03:17:42.651Z,10.43
2022-09-20T03:21:01.318Z,10.67
2022-09-20T03:24:20.339Z,10.20
2022-09-20T03:27:37.146Z,10.43
2022-09-20T03:30:55.445Z,12.17
2022-09-20T03:34:12.482Z,11.87
2022-09-20T03:37:38.021Z,12.40
2022-09-20T03:41:22.369Z,12.43
2022-09-20T03:44:50.490Z,14.03
2022-09-20T03:48:17.859Z,11.27
2022-09-20T03:51:34.082Z,12.87
2022-09-20T03:55:04.353Z,12.20
2022-09-20T03:58:28.291Z,13.30
2022-09-20T04:02:00.097Z,12.07
2022-09-20T04:05:12.955Z,11.07
2022-09-20T04:08:38.063Z,12.07
2022-09-20T04:11:56.525Z,11.80
2022-09-20T04:15:19.492Z,12.87
2022-09-20T04:18:36.436Z,11.20
2022-09-20T04:21:50.230Z,10.57
2022-09-20T04:25:03.121Z,10.33
2022-09-20T04:28:18.995Z,9.70
2022-09-20T04:31:37.446Z,10.10
2022-09-20T04:35:08.091Z,10.10
2022-09-20T04:38:17.754Z,9.97
2022-09-20T04:41:50.135Z,8.83
2022-09-20T04:45:30.411Z,9.47
2022-09-20T04:49:19.746Z,10.03
2022-09-20T04:53:03.179Z,9.93
2022-09-20T04:56:23.622Z,9.47
2022-09-20T04:59:47.956Z,9.30
2022-09-20T05:03:23.299Z,9.67
2022-09-20T05:07:00.938Z,9.57
2022-09-20T05:11:09.852Z,9.77
2022-09-20T05:14:35.759Z,9.57
2022-09-20T05:17:57.211Z,8.50
2022-09-20T05:21:17.115Z,8.80
2022-09-20T05:24:38.494Z,10.00
2022-09-20T05:28:00.289Z,10.20
2022-09-20T05:31:15.369Z,9.60
2022-09-20T05:34:30.636Z,8.53
2022-09-20T05:37:52.857Z,8.90
2022-09-20T05:41:10.820Z,7.57
2022-09-20T05:44:32.562Z,8.87
2022-09-20T05:47:48.972Z,7.93
2022-09-20T05:51:04.138Z,9.60
2022-09-20T05:54:42.721Z,10.40
2022-09-20T05:58:06.827Z,9.07
2022-09-20T06:01:22.126Z,8.47
2022-09-20T06:04:37.673Z,8.00
2022-09-20T06:08:12.251Z,7.53
2022-09-20T06:11:46.937Z,8.07
2022-09-20T06:15:03.330Z,7.30
2022-09-20T06:18:25.512Z,7.23
2022-09-20T06:21:42.922Z,7.60
2022-09-20T06:24:54.781Z,6.87
2022-09-20T06:28:08.077Z,7.27
2022-09-20T06:31:17.569Z,8.70
2022-09-20T06:34:27.193Z,12.67
2022-09-20T06:38:02.990Z,12.23
2022-09-20T06:41:25.552Z,11.90
2022-09-20T06:44:31.987Z,11.77
2022-09-20T06:47:40.728Z,12.00
2022-09-20T06:50:50.059Z,13.83
2022-09-20T06:53:57.867Z,14.37
2022-09-20T06:57:07.915Z,15.70
2022-09-20T07:00:17.152Z,21.13
2022-09-20T07:03:23.853Z,18.17
2022-09-20T07:06:32.234Z,18.47
2022-09-20T07:09:38.901Z,18.37
2022-09-20T07:12:45.117Z,21.00
2022-09-20T07:15:51.833Z,20.40
2022-09-20T07:18:57.481Z,21.27
2022-09-20T07:22:07.203Z,25.53
2022-09-20T07:25:12.962Z,16.87
2022-09-20T07:28:20.071Z,21.47
2022-09-20T07:31:28.191Z,16.77
2022-09-20T07:34:34.761Z,16.30
2022-09-20T07:37:45.059Z,13.77
2022-09-20T07:40:57.889Z,11.97
2022-09-20T07:44:21.099Z,13.80
2022-09-20T07:47:29.398Z,14.53
2022-09-20T07:50:35.088Z,14.20
2022-09-20T07:53:44.799Z,16.70
2022-09-20T07:56:51.052Z,16.60
2022-09-20T07:59:57.813Z,16.07
2022-09-20T08:03:06.180Z,16.60
2022-09-20T08:06:15.255Z,15.67
2022-09-20T08:09:23.591Z,16.90
2022-09-20T08:16:06.369Z,20.90
2022-09-20T08:19:18.399Z,16.63
2022-09-20T08:22:24.672Z,15.47
2022-09-20T08:25:33.970Z,15.33
2022-09-20T08:28:39.519Z,15.87
2022-09-20T08:31:47.400Z,13.20
2022-09-20T08:34:52.971Z,12.93
2022-09-20T08:39:57.335Z,14.37
2022-09-20T08:41:33.949Z,11.17
2022-09-20T08:44:58.964Z,11.87
2022-09-20T08:48:07.405Z,12.50
2022-09-20T08:51:22.631Z,11.83
2022-09-20T08:54:32.145Z,10.37
2022-09-20T08:57:41.710Z,12.37
2022-09-20T09:00:49.865Z,12.20
2022-09-20T09:04:03.349Z,12.63
2022-09-20T09:07:09.265Z,12.47
2022-09-20T09:10:17.554Z,10.53
2022-09-20T09:13:32.230Z,6.77
2022-09-20T09:16:38.756Z,9.47
2022-09-20T09:19:49.448Z,9.40
2022-09-20T09:23:04.966Z,10.30
2022-09-20T09:26:19.834Z,9.53
2022-09-20T09:29:31.770Z,16.40
2022-09-20T09:32:40.330Z,8.43
2022-09-20T09:35:47.552Z,7.90
2022-09-20T09:38:53.721Z,9.33
2022-09-20T09:42:03.364Z,8.10
2022-09-20T09:45:29.781Z,8.20
2022-09-20T09:48:38.323Z,10.10
2022-09-20T09:52:03.247Z,11.43
2022-09-20T09:55:17.511Z,6.07
2022-09-20T09:58:39.334Z,6.57
2022-09-20T10:01:56.798Z,8.23
2022-09-20T10:05:07.775Z,9.13
2022-09-20T10:08:26.316Z,11.20
2022-09-20T10:11:42.561Z,11.90
2022-09-20T10:15:03.387Z,11.87
2022-09-20T10:18:27.840Z,6.70
2022-09-20T10:21:49.400Z,6.63
2022-09-20T10:25:03.254Z,6.10
2022-09-20T10:28:24.954Z,6.87
2022-09-20T10:31:44.584Z,6.60
2022-09-20T10:35:06.320Z,7.43
2022-09-20T10:38:20.018Z,5.47
2022-09-20T10:42:00.774Z,5.97
2022-09-20T10:45:43.960Z,5.20
2022-09-20T10:48:51.746Z,5.00
2022-09-20T10:52:19.769Z,1.70
2022-09-20T10:55:35.154Z,1.57
2022-09-20T10:59:16.646Z,1.50
2022-09-20T11:02:49.301Z,2.37
2022-09-20T11:06:09.660Z,4.33
2022-09-20T11:09:23.787Z,2.17
2022-09-20T11:12:35.412Z,2.57
2022-09-20T11:15:47.249Z,3.63
2022-09-20T11:19:00.817Z,4.70
2022-09-20T11:22:12.360Z,3.53
2022-09-20T11:25:28.701Z,4.97
2022-09-20T11:28:40.611Z,5.40
2022-09-20T11:31:50.737Z,6.13
2022-09-20T11:35:03.223Z,7.03
2022-09-20T11:38:16.592Z,6.17
2022-09-20T11:41:30.282Z,5.10
2022-09-20T11:44:39.687Z,5.73
2022-09-20T11:47:54.955Z,5.50
2022-09-20T11:51:36.057Z,4.70
2022-09-20T11:55:01.273Z,3.80
2022-09-20T11:58:13.323Z,4.33
2022-09-20T12:01:29.540Z,3.70
2022-09-20T12:04:38.340Z,3.07
2022-09-20T12:08:08.243Z,2.33
2022-09-20T12:11:16.981Z,2.33
2022-09-20T12:14:28.242Z,2.00
2022-09-20T12:18:12.923Z,2.50
2022-09-20T12:21:21.191Z,3.97
2022-09-20T12:24:29.433Z,3.10
2022-09-20T12:28:00.477Z,4.27
2022-09-20T12:31:46.995Z,2.43
2022-09-20T12:34:59.237Z,2.17
2022-09-20T12:38:20.296Z,2.87
2022-09-20T12:42:38.547Z,2.67
2022-09-20T12:45:56.384Z,2.93
2022-09-20T12:49:37.662Z,2.00
2022-09-20T12:52:57.482Z,2.00
2022-09-20T12:56:09.775Z,5.23
2022-09-20T12:59:27.485Z,3.40
2022-09-20T13:03:01.043Z,3.13
2022-09-20T13:06:29.100Z,3.13
2022-09-20T13:09:39.485Z,3.30
2022-09-20T13:12:49.502Z,2.20
2022-09-20T13:16:01.409Z,3.07
2022-09-20T13:19:10.026Z,1.60
2022-09-20T13:22:21.043Z,2.73
2022-09-20T13:25:29.930Z,3.33
2022-09-20T13:28:41.412Z,3.60
2022-09-20T13:31:48.681Z,3.77
2022-09-20T13:35:09.395Z,2.63
2022-09-20T13:38:15.294Z,1.83
2022-09-20T13:41:24.986Z,2.87
2022-09-20T13:44:31.220Z,3.43
2022-09-20T13:47:37.674Z,3.77
2022-09-20T13:50:47.108Z,4.00
2022-09-20T13:53:55.815Z,3.40
2022-09-20T13:57:06.275Z,5.50
2022-09-20T14:00:17.501Z,2.10
2022-09-20T14:03:25.230Z,1.70
2022-09-20T14:06:31.727Z,2.97
2022-09-20T14:09:41.966Z,2.33
2022-09-20T14:12:53.069Z,3.23
2022-09-20T14:15:58.736Z,2.80
2022-09-20T14:19:09.036Z,1.40
2022-09-20T14:22:21.738Z,1.40
2022-09-20T14:25:30.035Z,2.57
2022-09-20T14:28:38.389Z,1.50
2022-09-20T14:31:50.981Z,1.70
2022-09-20T14:35:05.369Z,3.17
2022-09-20T14:38:12.706Z,2.30
2022-09-20T14:41:38.672Z,3.17
2022-09-20T14:44:47.922Z,2.23
2022-09-20T14:47:59.124Z,2.83
2022-09-20T14:51:25.554Z,2.80
2022-09-20T14:54:34.248Z,2.30
2022-09-20T14:57:40.921Z,2.87
2022-09-20T15:00:58.051Z,3.00
2022-09-20T15:04:11.456Z,3.17
2022-09-20T15:07:17.015Z,2.53
2022-09-20T15:10:23.624Z,3.23
2022-09-20T15:13:29.409Z,2.93
2022-09-20T15:16:38.803Z,3.87
2022-09-20T15:19:44.518Z,2.53
2022-09-20T15:22:52.183Z,6.57
2022-09-20T15:25:58.457Z,2.63
2022-09-20T15:29:09.266Z,3.73
2022-09-20T15:32:17.574Z,3.30
2022-09-20T15:35:23.974Z,2.20
2022-09-20T15:38:29.744Z,2.90
2022-09-20T15:41:36.426Z,4.80
2022-09-20T15:44:41.970Z,2.30
2022-09-20T15:47:51.479Z,2.03
2022-09-20T15:51:04.320Z,2.33
2022-09-20T15:54:12.481Z,2.67
2022-09-20T15:57:18.347Z,4.67
2022-09-20T16:00:24.782Z,5.47
2022-09-20T16:03:34.698Z,6.10
2022-09-20T16:06:42.064Z,1.43
2022-09-20T16:09:47.652Z,3.23
2022-09-20T16:12:54.244Z,3.60
2022-09-20T16:16:00.742Z,1.67
2022-09-20T16:19:21.827Z,2.40
2022-09-20T16:22:27.881Z,2.13
2022-09-20T16:25:34.320Z,4.00
2022-09-20T16:28:41.992Z,3.20
2022-09-20T16:31:52.778Z,9.33
2022-09-20T16:35:03.972Z,8.43
2022-09-20T16:38:13.105Z,8.40
2022-09-20T16:41:18.647Z,6.33
2022-09-20T16:44:25.097Z,7.40
2022-09-20T16:47:31.614Z,7.83
2022-09-20T16:50:41.065Z,9.60
2022-09-20T16:53:46.673Z,9.67
2022-09-20T16:56:54.634Z,8.07
2022-09-20T17:00:00.433Z,7.33
2022-09-20T17:03:08.746Z,7.97
2022-09-20T17:06:19.220Z,7.17
2022-09-20T17:09:25.749Z,8.73
2022-09-20T17:12:34.337Z,7.87
2022-09-20T17:15:40.758Z,7.63
2022-09-20T17:18:46.699Z,11.73
2022-09-20T17:21:55.910Z,16.13
2022-09-20T17:25:03.366Z,11.33
2022-09-20T17:28:10.213Z,13.17
2022-09-20T17:31:18.313Z,10.50
2022-09-20T17:34:25.589Z,12.83
2022-09-20T17:37:35.068Z,9.70
2022-09-20T17:40:41.480Z,9.20
2022-09-20T17:43:48.330Z,10.40
2022-09-20T17:46:55.093Z,9.47
2022-09-20T17:50:01.287Z,9.63
2022-09-20T17:53:12.151Z,8.80
2022-09-20T17:56:17.938Z,8.90
2022-09-20T17:59:24.778Z,11.43
2022-09-20T18:02:30.910Z,12.03
2022-09-20T18:05:37.510Z,11.30
2022-09-20T18:08:49.431Z,10.77
2022-09-20T18:11:57.763Z,11.97
2022-09-20T18:15:03.603Z,14.50
2022-09-20T18:18:11.113Z,11.73
2022-09-20T18:21:19.314Z,14.57
2022-09-20T18:24:28.992Z,16.03
2022-09-20T18:27:34.633Z,15.63
2022-09-20T18:30:41.746Z,15.70
2022-09-20T18:33:48.261Z,16.37
2022-09-20T18:36:56.606Z,14.97
2022-09-20T18:40:06.597Z,13.33
2022-09-20T18:43:13.572Z,14.00
2022-09-20T18:46:23.957Z,14.97
2022-09-20T18:49:31.056Z,15.23
2022-09-20T18:52:38.660Z,14.77
2022-09-20T18:55:50.038Z,15.20
2022-09-20T18:58:58.225Z,14.97
2022-09-20T19:02:19.109Z,11.20
2022-09-20T19:05:31.272Z,14.63
2022-09-20T19:08:44.266Z,11.23
2022-09-20T19:12:07.387Z,13.20
2022-09-20T19:15:30.705Z,11.90
2022-09-20T19:19:19.051Z,11.37
2022-09-20T19:22:35.034Z,12.77
2022-09-20T19:25:44.390Z,14.03
2022-09-20T19:28:55.424Z,14.13
2022-09-20T19:32:03.308Z,12.20
2022-09-20T19:35:20.578Z,11.27
2022-09-20T19:38:37.596Z,11.33
2022-09-20T19:41:53.725Z,12.20
2022-09-20T19:45:11.225Z,13.20
2022-09-20T19:48:25.136Z,10.33
2022-09-20T19:51:35.186Z,11.63
2022-09-20T19:54:46.481Z,9.43
2022-09-20T19:57:53.779Z,10.47
2022-09-20T20:01:04.282Z,10.43
2022-09-20T20:04:12.602Z,10.53
2022-09-20T20:07:28.018Z,10.60
2022-09-20T20:10:42.705Z,11.47
2022-09-20T20:14:08.129Z,11.23
2022-09-20T20:17:28.567Z,9.87
2022-09-20T20:20:41.266Z,10.33
2022-09-20T20:24:09.489Z,9.03
2022-09-20T20:27:16.470Z,7.60
2022-09-20T20:30:22.417Z,6.87
2022-09-20T20:33:32.978Z,5.70
2022-09-20T20:36:38.661Z,5.07
2022-09-20T20:39:45.139Z,5.10
2022-09-20T20:42:51.143Z,4.60
2022-09-20T20:45:57.907Z,2.83
2022-09-20T20:49:07.227Z,3.07
2022-09-20T20:52:14.103Z,4.83
2022-09-20T20:55:19.646Z,2.90
2022-09-20T20:58:26.102Z,3.20
2022-09-20T21:01:33.839Z,3.47
2022-09-20T21:04:43.083Z,3.20
2022-09-20T21:07:48.609Z,3.73
2022-09-20T21:10:55.264Z,3.70
2022-09-20T21:30:17.752Z,4.43
2022-09-20T21:44:12.331Z,8.30
2022-09-20T21:47:20.365Z,9.23
2022-09-20T21:50:26.774Z,9.57
2022-09-20T21:53:32.873Z,8.83
2022-09-20T21:56:40.469Z,10.33
2022-09-20T21:59:49.088Z,7.33
2022-09-20T22:02:59.423Z,10.80
2022-09-20T22:06:11.777Z,9.27
2022-09-20T22:09:19.886Z,10.63
2022-09-20T22:12:25.409Z,11.57
2022-09-20T22:15:34.867Z,11.00
2022-09-20T22:18:42.074Z,11.00
2022-09-20T22:21:51.182Z,11.77
2022-09-20T22:24:56.749Z,15.20
2022-09-20T22:28:03.481Z,11.57
2022-09-20T22:31:14.447Z,11.60
2022-09-20T22:34:22.400Z,11.93
2022-09-20T22:38:02.709Z,11.97
2022-09-20T22:45:37.855Z,9.53
2022-09-20T22:48:53.980Z,9.07
2022-09-20T22:52:00.906Z,11.13
2022-09-20T22:55:09.352Z,12.53
2022-09-20T22:58:20.898Z,13.63
2022-09-20T23:01:29.761Z,13.87
2022-09-20T23:04:38.697Z,13.90
2022-09-20T23:07:45.099Z,10.63
2022-09-20T23:10:50.731Z,11.37
2022-09-20T23:13:59.170Z,11.30
2022-09-20T23:17:06.292Z,11.63
2022-09-20T23:20:18.456Z,10.57
2022-09-20T23:23:24.409Z,10.77
2022-09-20T23:26:32.701Z,13.17
2022-09-20T23:30:15.991Z,16.00
2022-09-20T23:33:23.654Z,11.33
2022-09-20T23:58:03.258Z,13.97
